Time;durP1;ratioP1;P1;durP2;ratioP2;P2;SDS_P1;SDS_P2;PMS_P1;PMS_P2;Temp;Humidity;BMP_temperature;BMP_pressure;BME280_temperature;BME280_humidity;BME280_pressure;Samples;Min_cycle;Max_cycle;Signal;HPM_P1;HPM_P2
2022/01/06 00:01:02;;;;;;;18.47;12.80;;;;;;;9.62;57.05;93685.50;4988840;28;20422;-79
2022/01/06 00:03:28;;;;;;;15.40;12.47;;;;;;;9.56;57.05;93682.75;5006503;28;20412;-79
2022/01/06 00:06:07;;;;;;;17.27;13.60;;;;;;;10.12;56.49;93693.38;4993527;28;20405;-79
2022/01/06 00:08:36;;;;;;;17.17;14.40;;;;;;;9.64;56.87;93691.34;5008276;28;20189;-79
2022/01/06 00:11:04;;;;;;;16.63;14.00;;;;;;;9.34;57.69;93697.16;4984914;28;20437;-79
2022/01/06 00:13:44;;;;;;;17.43;13.53;;;;;;;9.47;57.28;93694.47;4959280;29;20494;-79
2022/01/06 00:16:23;;;;;;;13.47;11.90;;;;;;;9.84;56.51;93691.19;4984298;28;20401;-79
2022/01/06 00:24:17;;;;;;;15.70;11.23;;;;;;;9.82;55.92;93691.41;4990528;28;20444;-79
2022/01/06 00:26:43;;;;;;;15.37;12.87;;;;;;;9.65;56.78;93692.94;4974752;28;20417;-80
2022/01/06 00:29:08;;;;;;;12.60;11.30;;;;;;;9.94;55.63;93691.50;4976233;28;20432;-79
2022/01/06 00:31:35;;;;;;;12.90;10.17;;;;;;;9.26;56.54;93695.59;4994726;28;20412;-78
2022/01/06 00:34:35;;;;;;;;;;;;;;;;;;;;;
2022/01/06 00:44:26;;;;;;;12.70;10.70;;;;;;;10.05;55.19;93703.88;4967697;28;20452;-78
2022/01/06 00:46:52;;;;;;;15.23;12.20;;;;;;;9.60;56.59;93700.59;4955325;29;20438;-79
2022/01/06 00:49:22;;;;;;;16.03;12.80;;;;;;;10.05;55.41;93708.28;4958317;29;20421;-78
2022/01/06 00:51:48;;;;;;;15.33;12.13;;;;;;;9.98;55.25;93700.53;4982675;28;20522;-79
2022/01/06 00:54:14;;;;;;;13.63;11.47;;;;;;;9.49;56.62;93708.09;4990693;28;20461;-79
2022/01/06 00:56:40;;;;;;;16.70;13.63;;;;;;;9.71;56.16;93708.56;5008633;28;20461;-79
2022/01/06 00:59:09;;;;;;;18.53;12.07;;;;;;;9.61;56.72;93718.66;4988726;28;20428;-79
2022/01/06 01:01:34;;;;;;;15.53;12.90;;;;;;;9.89;55.88;93710.44;4994561;28;20193;-76
2022/01/06 01:04:00;;;;;;;14.43;12.37;;;;;;;9.69;56.14;93709.78;4988519;28;20417;-79
2022/01/06 01:07:16;;;;;;;;;;;;;;;;;;;;;
2022/01/06 01:13:15;;;;;;;13.27;10.57;;;;;;;9.37;56.92;93717.59;4997583;28;20482;-78
2022/01/06 01:15:55;;;;;;;12.63;11.03;;;;;;;9.32;57.56;93723.47;4995868;28;20424;-78
2022/01/06 01:18:21;;;;;;;15.83;11.60;;;;;;;9.18;58.00;93724.53;4992215;28;20467;-79
2022/01/06 01:20:55;;;;;;;13.50;12.20;;;;;;;9.36;57.11;93726.47;4992279;28;20433;-78
2022/01/06 01:23:33;;;;;;;12.70;11.07;;;;;;;9.32;57.36;93725.28;4977501;28;20445;-78
2022/01/06 01:25:59;;;;;;;14.33;11.77;;;;;;;8.98;58.08;93722.03;4972655;28;20480;-78
2022/01/06 01:28:42;;;;;;;14.50;11.90;;;;;;;9.52;57.42;93730.38;4994470;28;20421;-79
2022/01/06 01:31:25;;;;;;;11.73;10.53;;;;;;;8.97;58.16;93723.84;4993840;28;20431;-78
2022/01/06 01:33:53;;;;;;;13.13;11.73;;;;;;;8.89;58.16;93715.44;4990914;28;21076;-78
2022/01/06 01:36:19;;;;;;;17.57;10.73;;;;;;;9.04;58.09;93715.19;4993068;28;20432;-78
2022/01/06 01:38:45;;;;;;;13.67;10.20;;;;;;;9.07;58.50;93712.13;5009839;28;20478;-78
2022/01/06 01:41:14;;;;;;;14.60;11.07;;;;;;;8.81;59.50;93707.84;4994159;28;20429;-77
2022/01/06 01:50:41;;;;;;;;;;;;;;;;;;;;;
2022/01/06 01:53:21;;;;;;;13.23;10.87;;;;;;;9.13;58.53;93683.41;5008572;28;20228;-80
2022/01/06 02:04:19;;;;;;;16.65;11.63;;;;;;;9.38;57.18;93698.34;4983234;28;20281;-79
2022/01/06 02:06:45;;;;;;;17.20;11.33;;;;;;;8.95;58.67;93693.72;4952272;29;20202;-77
2022/01/06 02:09:10;;;;;;;15.70;12.23;;;;;;;8.87;58.64;93693.97;4951939;29;20453;-78
2022/01/06 02:11:36;;;;;;;13.93;12.50;;;;;;;8.67;58.92;93696.66;4953859;29;20190;-78
2022/01/06 02:14:05;;;;;;;17.23;13.03;;;;;;;8.27;60.45;93704.53;4954206;29;20219;-78
2022/01/06 02:16:30;;;;;;;18.17;11.90;;;;;;;8.87;58.88;93707.03;4951976;29;20183;-79
2022/01/06 02:18:56;;;;;;;13.90;11.77;;;;;;;8.85;59.08;93699.41;4969514;29;20414;-79
2022/01/06 02:21:29;;;;;;;16.20;12.83;;;;;;;8.95;58.46;93709.38;4952735;29;20187;-78
2022/01/06 02:23:55;;;;;;;14.37;12.90;;;;;;;8.78;59.25;93690.78;4939072;29;20197;-80
2022/01/06 02:26:45;;;;;;;16.40;12.53;;;;;;;8.78;59.43;93704.66;4953546;29;20418;-79
2022/01/06 02:29:10;;;;;;;13.63;11.60;;;;;;;8.68;59.65;93719.13;4946701;29;20439;-79
2022/01/06 02:31:46;;;;;;;18.83;12.80;;;;;;;8.61;59.13;93719.13;4935073;29;20491;-78
2022/01/06 02:34:11;;;;;;;16.83;13.60;;;;;;;8.59;59.54;93721.97;4932425;29;20222;-78
2022/01/06 02:36:37;;;;;;;15.37;12.87;;;;;;;8.59;59.89;93726.34;4932983;29;20506;-79
2022/01/06 02:39:03;;;;;;;15.47;13.10;;;;;;;8.71;60.18;93727.34;4934087;29;20530;-79
2022/01/06 02:41:29;;;;;;;13.70;12.17;;;;;;;8.51;60.10;93721.38;4935164;29;20197;-78
2022/01/06 02:43:55;;;;;;;14.97;12.53;;;;;;;8.89;58.51;93731.09;4951501;29;20439;-77
2022/01/06 02:46:21;;;;;;;16.20;13.03;;;;;;;8.65;59.52;93719.53;4952140;29;20176;-78
2022/01/06 02:48:49;;;;;;;17.30;13.33;;;;;;;8.88;58.76;93722.47;4946256;29;20533;-79
2022/01/06 02:51:14;;;;;;;21.27;12.70;;;;;;;8.86;58.96;93726.28;4970884;28;20179;-78
2022/01/06 02:53:40;;;;;;;14.83;12.90;;;;;;;8.65;60.05;93717.75;4951839;29;20512;-79
2022/01/06 02:56:05;;;;;;;14.90;12.90;;;;;;;8.64;60.47;93717.94;4951307;29;20197;-79
2022/01/06 02:58:31;;;;;;;16.60;13.10;;;;;;;8.76;59.30;93706.66;4968190;29;20194;-78
2022/01/06 03:00:56;;;;;;;17.40;12.13;;;;;;;9.08;59.08;93701.50;4968075;29;20250;-79
2022/01/06 03:03:22;;;;;;;14.40;12.17;;;;;;;8.86;59.25;93705.41;4950701;29;20290;-78
2022/01/06 03:05:47;;;;;;;14.63;11.40;;;;;;;8.86;59.67;93695.78;4966997;29;20226;-79
2022/01/06 03:08:13;;;;;;;14.03;11.97;;;;;;;8.71;59.36;93703.88;4950925;29;20193;-78
2022/01/06 03:10:43;;;;;;;14.07;11.30;;;;;;;8.53;60.89;93701.91;4953250;29;20241;-79
2022/01/06 03:13:09;;;;;;;16.57;10.67;;;;;;;8.64;59.66;93718.72;4956813;29;20198;-78
2022/01/06 03:15:34;;;;;;;14.53;12.87;;;;;;;8.48;60.64;93706.13;4953893;29;20426;-78
2022/01/06 03:18:00;;;;;;;13.87;11.67;;;;;;;8.58;60.45;93714.34;4953976;29;20421;-80
2022/01/06 03:20:27;;;;;;;12.63;10.90;;;;;;;8.85;60.35;93722.88;4954857;29;20222;-78
2022/01/06 03:22:54;;;;;;;13.67;11.73;;;;;;;8.91;59.75;93718.63;4967026;29;20198;-79
2022/01/06 03:25:20;;;;;;;14.10;11.80;;;;;;;8.58;60.21;93703.91;4949368;29;20452;-78
2022/01/06 03:27:46;;;;;;;12.83;11.50;;;;;;;8.57;60.07;93734.41;4951786;29;20446;-79
2022/01/06 03:30:15;;;;;;;16.57;12.20;;;;;;;8.56;61.02;93717.16;4968764;29;20458;-79
2022/01/06 03:32:42;;;;;;;13.87;11.90;;;;;;;8.53;60.31;93721.97;4969687;29;20226;-79
2022/01/06 03:35:09;;;;;;;14.23;12.73;;;;;;;8.82;60.06;93722.47;4954280;29;20472;-78
2022/01/06 03:37:35;;;;;;;17.10;12.73;;;;;;;9.03;59.43;93722.22;4970528;29;20448;-79
2022/01/06 03:40:04;;;;;;;17.20;11.47;;;;;;;8.09;60.98;93726.81;4968386;29;20498;-78
2022/01/06 03:42:32;;;;;;;17.80;12.57;;;;;;;8.38;60.30;93715.16;4951671;29;20738;-78
2022/01/06 03:44:58;;;;;;;12.10;10.30;;;;;;;7.77;62.53;93718.00;4948873;29;20435;-78
2022/01/06 03:47:23;;;;;;;14.17;12.70;;;;;;;7.75;63.23;93725.22;4949857;29;20439;-78
2022/01/06 03:49:49;;;;;;;16.70;12.40;;;;;;;8.31;61.56;93714.38;4950288;29;20431;-79
2022/01/06 03:52:14;;;;;;;10.03;7.13;;;;;;;8.24;60.58;93720.59;4947665;29;20190;-77
2022/01/06 03:54:40;;;;;;;22.27;13.37;;;;;;;8.30;60.67;93710.16;4949724;29;20184;-79
2022/01/06 03:57:05;;;;;;;17.33;11.67;;;;;;;8.48;61.40;93725.19;4952377;29;20659;-77
2022/01/06 03:59:31;;;;;;;15.27;12.10;;;;;;;8.28;61.53;93729.63;4932600;29;20187;-79
2022/01/06 04:01:57;;;;;;;13.10;11.37;;;;;;;8.20;61.91;93738.44;4953676;29;20202;-78
2022/01/06 04:04:23;;;;;;;14.60;11.67;;;;;;;8.30;61.17;93717.19;4936863;29;20411;-78
2022/01/06 04:06:48;;;;;;;16.20;11.60;;;;;;;8.19;62.06;93748.06;4936607;29;20399;-78
2022/01/06 04:09:14;;;;;;;14.73;12.30;;;;;;;8.17;61.63;93723.19;4936960;29;20274;-79
2022/01/06 04:11:39;;;;;;;14.50;9.30;;;;;;;8.39;60.63;93735.00;4947538;29;20191;-79
2022/01/06 04:14:05;;;;;;;13.17;11.87;;;;;;;8.04;62.31;93739.63;4937540;29;20211;-79
2022/01/06 04:16:34;;;;;;;13.80;11.30;;;;;;;8.09;61.91;93749.47;4952998;29;20174;-79
2022/01/06 04:19:00;;;;;;;14.93;11.03;;;;;;;8.06;61.62;93736.84;4954135;29;20199;-78
2022/01/06 04:21:25;;;;;;;11.27;10.17;;;;;;;8.12;61.90;93729.03;4963337;29;20430;-78
2022/01/06 04:23:51;;;;;;;12.57;11.00;;;;;;;8.10;61.80;93738.84;4939333;29;20179;-78
2022/01/06 04:26:16;;;;;;;13.50;10.77;;;;;;;8.36;60.05;93751.03;4975044;28;20194;-79
2022/01/06 04:28:42;;;;;;;14.73;12.60;;;;;;;8.11;62.09;93729.22;4972241;29;20182;-78
2022/01/06 04:31:09;;;;;;;14.37;11.70;;;;;;;7.92;62.69;93752.47;4957249;29;20208;-79
2022/01/06 04:33:34;;;;;;;13.67;12.17;;;;;;;8.18;61.73;93751.66;4971717;29;20462;-78
2022/01/06 04:36:01;;;;;;;13.03;11.20;;;;;;;8.20;61.82;93738.44;4971643;29;20434;-78
2022/01/06 04:38:27;;;;;;;17.50;11.90;;;;;;;7.66;62.24;93773.28;4973420;29;20218;-77
2022/01/06 04:40:53;;;;;;;15.10;11.27;;;;;;;7.54;63.29;93766.03;4972049;29;20821;-78
2022/01/06 04:43:18;;;;;;;14.10;11.00;;;;;;;8.11;61.41;93771.72;4971443;28;20417;-78
2022/01/06 04:45:44;;;;;;;16.67;10.63;;;;;;;8.14;61.27;93753.06;4972689;28;20255;-79
2022/01/06 04:48:10;;;;;;;6.47;5.13;;;;;;;6.98;64.52;93795.69;4955896;29;20193;-78
2022/01/06 04:50:35;;;;;;;12.33;10.53;;;;;;;7.74;63.25;93773.91;4971699;29;20230;-77
2022/01/06 04:53:01;;;;;;;15.40;12.50;;;;;;;7.97;62.45;93770.91;4972162;29;20199;-78
2022/01/06 04:55:26;;;;;;;16.77;13.07;;;;;;;8.02;62.63;93784.16;4972865;29;20233;-79
2022/01/06 04:57:52;;;;;;;14.20;11.67;;;;;;;7.77;62.47;93783.09;4972526;28;20250;-78
2022/01/06 05:00:17;;;;;;;18.83;13.07;;;;;;;7.93;62.22;93774.09;4953681;29;20222;-78
2022/01/06 05:02:43;;;;;;;15.50;10.93;;;;;;;7.56;63.39;93795.28;4973934;29;20250;-78
2022/01/06 05:05:08;;;;;;;14.50;13.00;;;;;;;7.78;63.51;93769.91;4953699;29;20222;-78
2022/01/06 05:07:34;;;;;;;13.93;11.13;;;;;;;7.93;62.45;93777.53;4953718;29;20186;-78
2022/01/06 05:09:59;;;;;;;15.00;13.40;;;;;;;8.36;62.26;93769.28;4971607;29;20189;-77
2022/01/06 05:12:25;;;;;;;14.83;12.73;;;;;;;8.40;60.94;93754.88;4971516;29;20218;-78
2022/01/06 05:14:50;;;;;;;16.83;13.33;;;;;;;7.91;63.36;93771.72;4954299;29;20197;-77
2022/01/06 05:17:17;;;;;;;17.17;14.33;;;;;;;8.20;62.92;93760.09;4970310;28;20178;-79
2022/01/06 05:19:43;;;;;;;13.37;11.03;;;;;;;7.93;62.84;93774.91;4970970;29;20210;-79
2022/01/06 05:22:08;;;;;;;16.50;13.30;;;;;;;8.32;62.41;93762.88;4950993;29;20419;-78
2022/01/06 05:24:35;;;;;;;17.30;12.87;;;;;;;8.50;61.95;93764.09;4954054;29;20484;-78
2022/01/06 05:27:01;;;;;;;16.87;12.97;;;;;;;8.52;61.49;93762.09;4953589;29;20186;-79
2022/01/06 05:29:26;;;;;;;19.57;15.67;;;;;;;8.70;61.70;93775.28;4970355;28;20886;-78
2022/01/06 05:31:52;;;;;;;20.57;14.20;;;;;;;8.46;61.41;93783.75;4971032;29;20222;-79
2022/01/06 05:34:17;;;;;;;15.63;12.93;;;;;;;8.92;61.01;93765.41;4970343;28;20203;-78
2022/01/06 05:36:43;;;;;;;18.27;14.63;;;;;;;8.58;61.83;93785.53;4966495;29;20187;-79
2022/01/06 05:39:08;;;;;;;18.10;14.40;;;;;;;8.65;61.10;93775.13;4970629;28;20258;-79
2022/01/06 05:41:34;;;;;;;18.40;14.73;;;;;;;8.96;60.94;93784.06;4970178;29;20221;-78
2022/01/06 05:44:00;;;;;;;21.10;16.60;;;;;;;8.75;60.84;93770.25;4970397;29;20182;-79
2022/01/06 05:46:26;;;;;;;27.40;15.77;;;;;;;8.81;61.78;93767.84;4970197;29;20438;-79
2022/01/06 05:48:52;;;;;;;18.53;13.67;;;;;;;8.73;62.07;93764.44;4969976;29;20407;-78
2022/01/06 05:51:18;;;;;;;18.53;14.90;;;;;;;8.65;61.60;93772.50;4952629;29;20438;-78
2022/01/06 05:53:43;;;;;;;15.70;13.07;;;;;;;8.67;62.33;93780.91;4969369;29;20465;-78
2022/01/06 05:56:09;;;;;;;24.63;13.93;;;;;;;8.69;62.30;93765.88;4952113;29;20213;-77
2022/01/06 05:58:37;;;;;;;17.40;14.30;;;;;;;8.57;61.79;93768.31;4969902;29;20194;-79
2022/01/06 06:01:03;;;;;;;20.63;14.13;;;;;;;8.74;61.06;93788.72;4969024;29;20577;-78
2022/01/06 06:03:29;;;;;;;18.13;15.43;;;;;;;8.66;61.54;93768.09;4952871;29;20422;-79
2022/01/06 06:05:55;;;;;;;23.17;18.33;;;;;;;8.65;61.98;93777.72;4957903;29;20481;-79
2022/01/06 06:08:21;;;;;;;25.40;18.20;;;;;;;8.67;61.95;93780.09;4951562;29;20246;-80
2022/01/06 06:10:47;;;;;;;21.77;17.30;;;;;;;8.50;62.67;93788.38;4934499;29;20419;-79
2022/01/06 06:13:13;;;;;;;21.10;16.40;;;;;;;8.45;63.18;93775.13;4951336;29;20466;-78
2022/01/06 06:15:39;;;;;;;22.13;15.90;;;;;;;8.37;63.09;93788.34;4964474;29;20438;-79
2022/01/06 06:18:05;;;;;;;21.70;16.20;;;;;;;8.74;62.04;93776.47;4950051;29;20277;-79
2022/01/06 06:20:32;;;;;;;23.70;16.23;;;;;;;8.61;61.41;93792.16;4951415;29;20178;-79
2022/01/06 06:22:59;;;;;;;18.83;16.03;;;;;;;8.47;62.07;93775.72;4968575;29;20743;-79
2022/01/06 06:25:25;;;;;;;24.70;16.77;;;;;;;8.50;62.06;93795.38;4965763;28;20560;-79
2022/01/06 06:27:51;;;;;;;19.57;16.17;;;;;;;8.51;61.54;93787.34;4950950;29;20975;-79
2022/01/06 06:30:17;;;;;;;25.30;17.67;;;;;;;8.83;61.85;93799.75;4969234;29;20414;-78
2022/01/06 06:32:43;;;;;;;27.00;18.97;;;;;;;8.59;61.94;93792.38;4969422;29;20573;-80
2022/01/06 06:35:09;;;;;;;28.37;19.93;;;;;;;9.16;60.30;93810.91;4984174;28;20450;-78
2022/01/06 06:37:34;;;;;;;30.50;17.57;;;;;;;8.84;61.17;93788.28;4949024;28;20556;-79
2022/01/06 06:40:00;;;;;;;23.83;18.17;;;;;;;8.75;61.08;93798.94;4932071;29;20183;-79
2022/01/06 06:42:26;;;;;;;26.97;19.70;;;;;;;8.53;62.56;93792.38;4949221;29;20251;-79
2022/01/06 06:44:52;;;;;;;28.00;20.00;;;;;;;8.41;62.18;93805.19;4933429;29;20268;-79
2022/01/06 06:47:18;;;;;;;26.90;18.10;;;;;;;8.75;61.75;93801.56;4968120;29;20518;-79
2022/01/06 06:49:44;;;;;;;23.83;19.40;;;;;;;8.52;62.68;93801.22;4950565;29;20178;-78
2022/01/06 06:52:09;;;;;;;27.77;20.40;;;;;;;8.29;62.85;93815.44;4968384;29;20437;-78
2022/01/06 06:54:35;;;;;;;31.63;22.13;;;;;;;8.62;61.74;93804.19;4967949;29;20189;-79
2022/01/06 06:57:00;;;;;;;31.27;21.67;;;;;;;8.66;61.46;93812.41;4950495;29;20687;-79
2022/01/06 06:59:26;;;;;;;24.80;20.80;;;;;;;8.75;61.43;93793.72;4950457;29;20210;-79
2022/01/06 07:01:52;;;;;;;13.47;11.60;;;;;;;8.28;62.97;93818.22;4968020;29;20194;-79
2022/01/06 07:04:17;;;;;;;23.33;18.47;;;;;;;8.73;62.47;93795.75;4967930;29;20217;-79
2022/01/06 07:06:42;;;;;;;23.13;17.77;;;;;;;8.98;61.04;93798.50;4975139;28;20198;-78
2022/01/06 07:09:08;;;;;;;26.83;18.93;;;;;;;9.36;59.89;93802.97;4954091;29;20186;-79
2022/01/06 07:11:33;;;;;;;21.43;16.70;;;;;;;9.30;60.27;93814.25;4968086;29;20179;-79
2022/01/06 07:13:59;;;;;;;27.87;18.60;;;;;;;9.12;61.03;93814.09;4968008;29;20241;-79
2022/01/06 07:16:25;;;;;;;22.07;17.77;;;;;;;9.66;59.12;93822.53;4965999;29;20213;-80
2022/01/06 07:18:50;;;;;;;24.43;18.47;;;;;;;9.53;59.22;93815.56;4967961;29;20198;-79
2022/01/06 07:21:16;;;;;;;23.77;17.30;;;;;;;8.92;62.18;93814.19;4967516;29;20185;-79
2022/01/06 09:08:01;;;;;;;18.73;15.13;;;;;;;12.57;51.32;93858.25;4358533;27;20965768;-78
2022/01/06 09:11:16;;;;;;;18.97;15.50;;;;;;;12.70;51.53;93837.06;5062279;28;20285;-79
2022/01/06 09:17:44;;;;;;;19.80;16.17;;;;;;;13.32;49.45;93846.31;5000694;28;20532;-79
2022/01/06 09:21:03;;;;;;;;;;;;;;;;;;;;;
2022/01/06 09:35:00;;;;;;;19.03;16.27;;;;;;;14.95;46.06;93815.25;5057864;28;20457;-78
2022/01/06 10:03:46;;;;;;;;;;;;;;;;;;;;;
2022/01/06 10:17:23;;;;;;;;;;;;;;;;;;;;;
2022/01/06 10:20:19;;;;;;;;;;;;;;;;;;;;;
2022/01/06 10:52:54;;;;;;;6.17;3.53;;;;;;;19.52;31.28;93773.59;5085553;28;20813;-78
2022/01/06 11:12:26;;;;;;;7.10;4.60;;;;;;;21.73;28.25;93754.03;4861103;29;20440;-79
2022/01/06 11:18:51;;;;;;;17.27;5.23;;;;;;;21.35;28.67;93750.47;4885189;29;20491;-78
2022/01/06 11:25:42;;;;;;;4.60;3.13;;;;;;;21.98;27.32;93738.78;5024997;28;20491;-78
2022/01/06 11:28:16;;;;;;;2.83;2.40;;;;;;;21.16;27.75;93729.91;5102726;27;20862;-78
2022/01/06 11:35:13;;;;;;;;;;;;;;;;;;;;;
2022/01/06 11:38:29;;;;;;;;;;;;;;;;;;;;;
2022/01/06 11:55:23;;;;;;;5.87;2.30;;;;;;;22.83;26.21;93741.50;4876202;29;20467;-78
2022/01/06 12:05:58;;;;;;;13.53;4.23;;;;;;;21.57;27.80;93745.44;5075226;27;20454;-78
2022/01/06 12:29:19;;;;;;;3.00;2.30;;;;;;;20.32;28.93;93748.75;5126620;27;20470;-78
2022/01/06 12:53:23;;;;;;;26.33;4.27;;;;;;;19.23;30.58;93734.41;5032240;28;20507;-78
2022/01/06 12:56:26;;;;;;;2.90;1.90;;;;;;;19.31;30.61;93747.13;5050017;28;20519;-77
2022/01/06 13:02:28;;;;;;;6.57;3.30;;;;;;;19.25;31.03;93758.81;4999057;28;20412;-78
2022/01/06 13:05:22;;;;;;;11.23;2.60;;;;;;;18.84;31.36;93756.28;5044924;28;20417;-78
2022/01/06 13:08:04;;;;;;;2.57;2.37;;;;;;;18.74;31.79;93756.25;5016521;28;20477;-78
2022/01/06 13:11:34;;;;;;;2.23;2.07;;;;;;;19.20;30.50;93764.16;5040695;28;20460;-78
2022/01/06 13:14:44;;;;;;;14.57;3.20;;;;;;;19.35;31.01;93760.66;5004984;28;20453;-77
2022/01/06 13:17:43;;;;;;;3.23;2.00;;;;;;;19.44;30.38;93763.53;5018636;28;20552;-77
2022/01/06 13:24:52;;;;;;;;;;;;;;;;;;;;;
2022/01/06 13:31:02;;;;;;;4.47;2.57;;;;;;;18.11;32.61;93772.41;4997717;28;20458;-78
2022/01/06 13:33:49;;;;;;;;;;;;;;;;;;;;;
2022/01/06 13:43:13;;;;;;;;;;;;;;;;;;;;;
2022/01/06 13:45:50;;;;;;;7.90;3.10;;;;;;;18.40;32.49;93795.72;5130187;28;20260;-77
2022/01/06 13:55:32;;;;;;;6.30;3.10;;;;;;;18.80;31.57;93795.00;5047553;28;20497;-78
2022/01/06 14:01:43;;;;;;;3.60;2.40;;;;;;;18.17;32.44;93791.75;5045478;28;20443;-78
2022/01/06 14:04:46;;;;;;;;;;;;;;;;;;;;;
2022/01/06 14:11:25;;;;;;;4.53;2.10;;;;;;;18.65;31.26;93806.34;5061623;28;20420;-77
2022/01/06 14:14:58;;;;;;;4.00;3.27;;;;;;;18.29;32.02;93805.53;4982484;28;20976;-78
2022/01/06 14:20:59;;;;;;;3.50;2.40;;;;;;;18.65;31.79;93813.53;5114554;27;20412;-78
2022/01/06 14:24:08;;;;;;;8.20;3.03;;;;;;;17.89;32.08;93820.25;5101436;28;20596;-77
2022/01/06 14:27:10;;;;;;;4.10;2.93;;;;;;;18.46;31.75;93810.59;5101427;28;20464;-78
2022/01/06 14:30:17;;;;;;;5.50;2.80;;;;;;;18.33;31.84;93822.50;5083547;28;20437;-78
2022/01/06 14:33:25;;;;;;;21.63;3.80;;;;;;;18.20;32.63;93833.59;5087117;28;20423;-77
2022/01/06 14:43:08;;;;;;;7.00;3.20;;;;;;;18.18;32.20;93835.72;5011622;28;20439;-78
2022/01/06 14:46:32;;;;;;;5.47;2.30;;;;;;;17.70;32.87;93830.47;5087430;28;21043;-78
2022/01/06 15:00:39;;;;;;;;;;;;;;;;;;;;;
2022/01/06 15:03:53;;;;;;;1.63;1.53;;;;;;;17.03;33.80;93861.06;5089019;28;20539;-77
2022/01/06 15:33:24;;;;;;;2.67;1.73;;;;;;;17.43;32.85;93894.13;4993691;28;20406;-77
2022/01/06 15:40:27;;;;;;;;;;;;;;;;;;;;;
2022/01/06 15:44:33;;;;;;;2.03;1.93;;;;;;;17.47;32.65;93914.53;5024550;28;20513;-77
2022/01/06 15:57:20;;;;;;;17.30;15.50;;;;;;;13.05;50.25;93967.59;5007832;28;20460;-77
2022/01/06 16:00:35;;;;;;;16.87;14.00;;;;;;;13.07;50.01;93972.59;5133839;27;20432;-77
2022/01/06 16:13:57;;;;;;;16.27;12.77;;;;;;;12.52;50.93;94014.78;5135710;27;20525;-77
2022/01/06 16:32:24;;;;;;;9.80;8.13;;;;;;;9.30;60.24;94049.22;5062228;28;20268;-77
2022/01/06 16:46:19;;;;;;;;;;;;;;;;;;;;;
2022/01/06 16:55:35;;;;;;;;;;;;;;;;;;;;;
2022/01/06 16:59:48;;;;;;;;;;;;;;;;;;;;;
2022/01/06 17:05:54;;;;;;;;;;;;;;;;;;;;;
2022/01/06 17:13:55;;;;;;;;;;;;;;;;;;;;;
2022/01/06 17:27:24;;;;;;;16.30;10.90;;;;;;;9.32;57.55;94159.47;4945780;29;20458;-79
2022/01/06 17:53:19;;;;;;;12.80;8.83;;;;;;;7.53;62.74;94196.59;5060508;28;20489;-78
2022/01/06 18:13:42;;;;;;;10.77;8.37;;;;;;;7.36;63.17;94205.63;5053751;28;20447;-75
2022/01/06 20:01:11;;;;;;;11.40;7.10;;;;;;;7.12;59.79;94402.72;5077441;28;20470;-76
2022/01/06 20:04:21;;;;;;;11.57;9.60;;;;;;;7.39;59.01;94390.06;5107340;28;20427;-77
2022/01/06 20:07:19;;;;;;;7.33;6.57;;;;;;;7.50;59.12;94394.00;5106634;28;20184;-76
2022/01/06 20:10:19;;;;;;;8.60;7.80;;;;;;;6.89;60.72;94404.59;5088613;28;20939;-76
2022/01/06 20:12:45;;;;;;;10.80;7.27;;;;;;;6.84;61.54;94405.13;5088410;28;20414;-76
2022/01/06 20:16:08;;;;;;;7.40;6.17;;;;;;;7.07;60.26;94405.03;5107214;28;20756;-77
2022/01/06 20:19:22;;;;;;;8.80;6.77;;;;;;;7.06;59.64;94408.66;5106147;28;20193;-76
2022/01/06 20:22:35;;;;;;;;;;;;;;;;;;;;;
2022/01/06 20:25:01;;;;;;;6.93;6.10;;;;;;;6.89;60.26;94422.81;5101642;28;20474;-74
2022/01/06 20:27:27;;;;;;;5.90;4.97;;;;;;;6.50;60.83;94408.19;5106983;28;20404;-74
2022/01/06 20:29:52;;;;;;;7.80;5.97;;;;;;;6.60;61.27;94419.97;5106887;28;20177;-75
2022/01/06 20:32:18;;;;;;;5.60;4.20;;;;;;;6.25;62.07;94426.56;5089097;28;20217;-76
2022/01/06 20:34:47;;;;;;;6.53;5.27;;;;;;;6.20;62.03;94428.84;5088338;28;20173;-76
2022/01/06 20:37:20;;;;;;;5.17;4.73;;;;;;;5.69;64.23;94416.28;5072061;28;20204;-75
2022/01/06 20:39:46;;;;;;;7.10;3.87;;;;;;;5.80;62.99;94422.88;5087963;28;20418;-74
2022/01/06 20:42:12;;;;;;;4.93;4.53;;;;;;;5.76;63.16;94437.19;5088276;28;20411;-75
2022/01/06 20:45:10;;;;;;;6.00;4.20;;;;;;;5.55;64.17;94435.16;5108319;28;20177;-76
2022/01/06 20:47:52;;;;;;;9.27;6.37;;;;;;;5.51;64.81;94431.31;5088706;28;20404;-77
2022/01/06 20:53:27;;;;;;;7.13;5.37;;;;;;;5.86;63.69;94437.78;5106717;28;20982;-77
2022/01/06 20:55:58;;;;;;;4.50;4.10;;;;;;;5.75;63.69;94435.56;5087906;28;20531;-77
2022/01/06 20:58:57;;;;;;;6.90;6.20;;;;;;;5.95;62.99;94439.38;5075996;28;20478;-76
2022/01/06 21:01:24;;;;;;;7.33;5.90;;;;;;;6.03;62.96;94444.56;5067879;28;20459;-75
2022/01/06 21:03:58;;;;;;;3.73;3.43;;;;;;;5.81;63.87;94459.06;5106315;28;20423;-76
2022/01/06 21:06:38;;;;;;;;;;;;;;;;;;;;;
2022/01/06 21:09:07;;;;;;;4.27;3.97;;;;;;;5.64;63.78;94449.75;5106370;28;20449;-76
2022/01/06 21:11:50;;;;;;;9.20;6.13;;;;;;;5.68;63.66;94457.00;5087781;28;20410;-77
2022/01/06 21:14:41;;;;;;;7.57;6.30;;;;;;;6.15;62.69;94457.94;5088524;28;20457;-77
2022/01/06 21:17:32;;;;;;;4.67;4.33;;;;;;;6.20;61.86;94460.84;5087633;28;20439;-77
2022/01/06 21:20:18;;;;;;;5.33;4.83;;;;;;;6.31;62.02;94457.03;5064707;28;20457;-77
2022/01/06 21:22:47;;;;;;;3.63;3.40;;;;;;;5.87;62.61;94460.19;5087342;28;20427;-77
2022/01/06 21:25:13;;;;;;;2.10;2.00;;;;;;;6.06;61.94;94464.97;5087798;28;20419;-76
2022/01/06 21:27:46;;;;;;;5.90;5.33;;;;;;;6.32;61.15;94468.22;5087835;28;20954;-76
2022/01/06 21:30:33;;;;;;;5.10;4.60;;;;;;;6.05;62.61;94470.34;5087357;28;20462;-76
2022/01/06 21:33:13;;;;;;;4.57;4.20;;;;;;;5.95;62.64;94480.94;5043223;28;20433;-76
2022/01/06 21:35:57;;;;;;;3.70;3.20;;;;;;;5.93;62.91;94485.47;5043239;28;20394;-76
2022/01/06 21:38:36;;;;;;;8.60;6.33;;;;;;;6.50;60.73;94484.34;5043186;28;20481;-76
2022/01/06 21:41:44;;;;;;;7.03;5.70;;;;;;;6.24;61.57;94476.88;5043214;28;20504;-76
2022/01/06 21:44:16;;;;;;;7.40;6.60;;;;;;;6.20;61.64;94489.44;4984397;28;20512;-76
2022/01/06 21:46:57;;;;;;;3.20;2.90;;;;;;;6.21;61.84;94490.22;5023852;28;20423;-76
2022/01/06 21:55:57;;;;;;;6.73;4.63;;;;;;;6.29;61.10;94495.38;5003786;28;20462;-76
2022/01/06 21:58:30;;;;;;;5.30;4.80;;;;;;;6.02;62.37;94500.06;4987167;28;20428;-76
2022/01/06 22:01:04;;;;;;;6.30;5.70;;;;;;;5.67;63.26;94509.91;5000309;28;20466;-76
2022/01/06 22:03:39;;;;;;;10.63;7.23;;;;;;;6.21;62.14;94513.63;5038629;28;20431;-76
2022/01/06 22:06:11;;;;;;;6.60;5.70;;;;;;;6.45;61.08;94510.88;5085375;28;20443;-76
2022/01/06 22:08:58;;;;;;;7.67;6.87;;;;;;;6.43;61.20;94518.03;5066783;28;20424;-76
2022/01/06 22:11:47;;;;;;;7.57;6.87;;;;;;;6.59;60.58;94522.31;5067636;28;20424;-76
2022/01/06 22:15:13;;;;;;;6.57;5.57;;;;;;;6.13;61.96;94516.22;5086693;28;20420;-76
2022/01/06 22:17:45;;;;;;;4.40;4.10;;;;;;;6.05;61.75;94514.50;5072155;28;20617;-76
2022/01/06 22:37:32;;;;;;;6.07;5.27;;;;;;;6.26;61.31;94545.09;4987469;28;20443;-76
2022/01/06 22:40:41;;;;;;;;;;;;;;;;;;;;;
2022/01/06 22:47:25;;;;;;;5.83;5.33;;;;;;;6.31;61.11;94544.56;5046462;28;20500;-76
2022/01/06 22:54:10;;;;;;;9.03;7.00;;;;;;;6.31;61.51;94549.78;5046336;28;20426;-76
2022/01/06 23:08:47;;;;;;;;;;;;;;;;;;;;;
2022/01/06 23:28:46;;;;;;;7.70;6.20;;;;;;;6.28;61.72;94570.88;4986402;28;20373;-76
2022/01/06 23:38:41;;;;;;;;;;;;;;;;;;;;;
2022/01/06 23:47:34;;;;;;;3.53;3.17;;;;;;;5.79;61.14;94585.66;5064479;28;20487;-76
2022/01/06 23:50:14;;;;;;;3.43;2.80;;;;;;;5.78;61.29;94581.41;5048887;28;20409;-75
2022/01/06 23:52:50;;;;;;;4.03;3.63;;;;;;;6.02;61.76;94590.97;5049408;28;20482;-76
2022/01/06 23:55:36;;;;;;;4.07;3.77;;;;;;;5.81;61.82;94598.47;5048408;28;20412;-76
2022/01/06 23:58:05;;;;;;;3.93;3.63;;;;;;;6.08;61.17;94589.50;5048664;28;20433;-75
